sensor_id;sensor_type;location;lat;lon;timestamp;P1;durP1;ratioP1;P2;durP2;ratioP2
68921;SDS011;55959;51.244;5.724;2023-10-31T00:02:15;2.60;;;1.30;;
68921;SDS011;55959;51.244;5.724;2023-10-31T00:04:41;3.07;;;1.50;;
68921;SDS011;55959;51.244;5.724;2023-10-31T00:07:07;2.37;;;1.60;;
68921;SDS011;55959;51.244;5.724;2023-10-31T00:09:32;2.07;;;1.30;;
68921;SDS011;55959;51.244;5.724;2023-10-31T00:11:58;1.90;;;1.60;;
68921;SDS011;55959;51.244;5.724;2023-10-31T00:14:24;2.50;;;1.60;;
68921;SDS011;55959;51.244;5.724;2023-10-31T00:16:50;2.83;;;2.03;;
68921;SDS011;55959;51.244;5.724;2023-10-31T00:19:17;3.40;;;1.87;;
68921;SDS011;55959;51.244;5.724;2023-10-31T00:21:43;3.37;;;2.20;;
68921;SDS011;55959;51.244;5.724;2023-10-31T00:24:09;2.47;;;1.80;;
68921;SDS011;55959;51.244;5.724;2023-10-31T00:26:34;3.33;;;2.10;;
68921;SDS011;55959;51.244;5.724;2023-10-31T00:29:00;5.30;;;2.87;;
68921;SDS011;55959;51.244;5.724;2023-10-31T00:31:26;3.00;;;2.30;;
68921;SDS011;55959;51.244;5.724;2023-10-31T00:33:51;5.17;;;2.77;;
68921;SDS011;55959;51.244;5.724;2023-10-31T00:36:17;4.73;;;3.57;;
68921;SDS011;55959;51.244;5.724;2023-10-31T00:38:43;4.53;;;3.23;;
68921;SDS011;55959;51.244;5.724;2023-10-31T00:41:09;4.50;;;3.60;;
68921;SDS011;55959;51.244;5.724;2023-10-31T00:43:34;5.33;;;4.07;;
68921;SDS011;55959;51.244;5.724;2023-10-31T00:46:02;4.63;;;4.17;;
68921;SDS011;55959;51.244;5.724;2023-10-31T00:48:28;4.23;;;3.83;;
68921;SDS011;55959;51.244;5.724;2023-10-31T00:50:54;5.33;;;4.17;;
68921;SDS011;55959;51.244;5.724;2023-10-31T00:53:20;4.37;;;4.00;;
68921;SDS011;55959;51.244;5.724;2023-10-31T00:55:45;5.77;;;4.57;;
68921;SDS011;55959;51.244;5.724;2023-10-31T00:58:11;6.43;;;5.03;;
68921;SDS011;55959;51.244;5.724;2023-10-31T01:00:37;5.10;;;4.67;;
68921;SDS011;55959;51.244;5.724;2023-10-31T01:03:03;6.23;;;4.73;;
68921;SDS011;55959;51.244;5.724;2023-10-31T01:05:29;6.97;;;5.50;;
68921;SDS011;55959;51.244;5.724;2023-10-31T01:07:55;6.40;;;5.30;;
68921;SDS011;55959;51.244;5.724;2023-10-31T01:10:21;5.60;;;5.00;;
68921;SDS011;55959;51.244;5.724;2023-10-31T01:12:47;5.37;;;4.80;;
68921;SDS011;55959;51.244;5.724;2023-10-31T01:15:14;6.33;;;5.70;;
68921;SDS011;55959;51.244;5.724;2023-10-31T01:17:39;5.43;;;4.93;;
68921;SDS011;55959;51.244;5.724;2023-10-31T01:20:06;6.20;;;5.43;;
68921;SDS011;55959;51.244;5.724;2023-10-31T01:22:32;5.17;;;4.53;;
68921;SDS011;55959;51.244;5.724;2023-10-31T01:24:58;4.90;;;4.27;;
68921;SDS011;55959;51.244;5.724;2023-10-31T01:27:23;4.87;;;4.33;;
68921;SDS011;55959;51.244;5.724;2023-10-31T01:29:49;4.27;;;3.87;;
68921;SDS011;55959;51.244;5.724;2023-10-31T01:32:15;6.83;;;4.30;;
68921;SDS011;55959;51.244;5.724;2023-10-31T01:34:41;6.37;;;4.87;;
68921;SDS011;55959;51.244;5.724;2023-10-31T01:37:07;6.57;;;4.83;;
68921;SDS011;55959;51.244;5.724;2023-10-31T01:39:35;6.57;;;5.23;;
68921;SDS011;55959;51.244;5.724;2023-10-31T01:42:01;5.03;;;4.53;;
68921;SDS011;55959;51.244;5.724;2023-10-31T01:44:27;5.80;;;4.30;;
68921;SDS011;55959;51.244;5.724;2023-10-31T01:46:53;5.63;;;5.00;;
68921;SDS011;55959;51.244;5.724;2023-10-31T01:49:18;6.10;;;4.57;;
68921;SDS011;55959;51.244;5.724;2023-10-31T01:51:44;5.90;;;5.40;;
68921;SDS011;55959;51.244;5.724;2023-10-31T01:54:11;5.27;;;4.77;;
68921;SDS011;55959;51.244;5.724;2023-10-31T01:56:38;5.30;;;4.40;;
68921;SDS011;55959;51.244;5.724;2023-10-31T01:59:05;5.30;;;4.73;;
68921;SDS011;55959;51.244;5.724;2023-10-31T02:01:31;6.30;;;5.10;;
68921;SDS011;55959;51.244;5.724;2023-10-31T02:03:59;5.57;;;4.53;;
68921;SDS011;55959;51.244;5.724;2023-10-31T02:06:27;5.70;;;4.80;;
68921;SDS011;55959;51.244;5.724;2023-10-31T02:08:55;5.77;;;4.67;;
68921;SDS011;55959;51.244;5.724;2023-10-31T02:11:20;6.70;;;5.10;;
68921;SDS011;55959;51.244;5.724;2023-10-31T02:13:46;5.90;;;4.97;;
68921;SDS011;55959;51.244;5.724;2023-10-31T02:16:12;6.37;;;5.47;;
68921;SDS011;55959;51.244;5.724;2023-10-31T02:18:37;7.73;;;6.80;;
68921;SDS011;55959;51.244;5.724;2023-10-31T02:21:03;6.10;;;5.50;;
68921;SDS011;55959;51.244;5.724;2023-10-31T02:23:29;6.43;;;5.63;;
68921;SDS011;55959;51.244;5.724;2023-10-31T02:25:55;7.53;;;6.63;;
68921;SDS011;55959;51.244;5.724;2023-10-31T02:28:22;8.60;;;7.27;;
68921;SDS011;55959;51.244;5.724;2023-10-31T02:30:52;9.47;;;7.40;;
68921;SDS011;55959;51.244;5.724;2023-10-31T02:33:19;8.00;;;6.97;;
68921;SDS011;55959;51.244;5.724;2023-10-31T02:35:45;7.63;;;6.10;;
68921;SDS011;55959;51.244;5.724;2023-10-31T02:38:11;7.80;;;7.07;;
68921;SDS011;55959;51.244;5.724;2023-10-31T02:40:37;8.00;;;7.20;;
68921;SDS011;55959;51.244;5.724;2023-10-31T02:43:02;6.87;;;6.17;;
68921;SDS011;55959;51.244;5.724;2023-10-31T02:45:28;8.27;;;7.33;;
68921;SDS011;55959;51.244;5.724;2023-10-31T02:47:54;8.37;;;7.47;;
68921;SDS011;55959;51.244;5.724;2023-10-31T02:50:20;7.60;;;6.80;;
68921;SDS011;55959;51.244;5.724;2023-10-31T02:52:46;7.53;;;6.73;;
68921;SDS011;55959;51.244;5.724;2023-10-31T02:55:12;8.57;;;7.23;;
68921;SDS011;55959;51.244;5.724;2023-10-31T02:57:37;7.97;;;7.17;;
68921;SDS011;55959;51.244;5.724;2023-10-31T03:00:03;8.13;;;7.33;;
68921;SDS011;55959;51.244;5.724;2023-10-31T03:02:30;7.77;;;6.93;;
68921;SDS011;55959;51.244;5.724;2023-10-31T03:04:56;8.73;;;7.43;;
68921;SDS011;55959;51.244;5.724;2023-10-31T03:07:22;7.83;;;7.03;;
68921;SDS011;55959;51.244;5.724;2023-10-31T03:09:48;8.17;;;6.90;;
68921;SDS011;55959;51.244;5.724;2023-10-31T03:12:13;8.73;;;7.03;;
68921;SDS011;55959;51.244;5.724;2023-10-31T03:14:39;7.67;;;6.87;;
68921;SDS011;55959;51.244;5.724;2023-10-31T03:17:05;7.90;;;7.10;;
68921;SDS011;55959;51.244;5.724;2023-10-31T03:19:31;7.93;;;7.10;;
68921;SDS011;55959;51.244;5.724;2023-10-31T03:21:57;7.70;;;7.00;;
68921;SDS011;55959;51.244;5.724;2023-10-31T03:24:22;8.47;;;7.40;;
68921;SDS011;55959;51.244;5.724;2023-10-31T03:26:48;7.30;;;6.60;;
68921;SDS011;55959;51.244;5.724;2023-10-31T03:29:14;7.47;;;6.60;;
68921;SDS011;55959;51.244;5.724;2023-10-31T03:31:39;7.03;;;6.27;;
68921;SDS011;55959;51.244;5.724;2023-10-31T03:34:05;7.73;;;6.17;;
68921;SDS011;55959;51.244;5.724;2023-10-31T03:36:31;6.17;;;5.57;;
68921;SDS011;55959;51.244;5.724;2023-10-31T03:38:57;6.60;;;5.43;;
68921;SDS011;55959;51.244;5.724;2023-10-31T03:41:22;6.27;;;5.67;;
68921;SDS011;55959;51.244;5.724;2023-10-31T03:43:49;6.63;;;5.90;;
68921;SDS011;55959;51.244;5.724;2023-10-31T03:46:15;6.67;;;5.97;;
68921;SDS011;55959;51.244;5.724;2023-10-31T03:48:41;6.37;;;5.77;;
68921;SDS011;55959;51.244;5.724;2023-10-31T03:51:07;6.37;;;5.43;;
68921;SDS011;55959;51.244;5.724;2023-10-31T03:53:33;6.50;;;5.90;;
68921;SDS011;55959;51.244;5.724;2023-10-31T03:55:59;5.87;;;5.30;;
68921;SDS011;55959;51.244;5.724;2023-10-31T03:58:25;6.60;;;5.90;;
68921;SDS011;55959;51.244;5.724;2023-10-31T04:00:50;6.00;;;5.40;;
68921;SDS011;55959;51.244;5.724;2023-10-31T04:03:16;5.93;;;5.10;;
68921;SDS011;55959;51.244;5.724;2023-10-31T04:05:42;4.97;;;4.47;;
68921;SDS011;55959;51.244;5.724;2023-10-31T04:08:08;5.73;;;5.13;;
68921;SDS011;55959;51.244;5.724;2023-10-31T04:10:33;5.87;;;5.20;;
68921;SDS011;55959;51.244;5.724;2023-10-31T04:12:59;5.63;;;5.07;;
68921;SDS011;55959;51.244;5.724;2023-10-31T04:15:25;6.00;;;5.50;;
68921;SDS011;55959;51.244;5.724;2023-10-31T04:17:51;5.27;;;4.77;;
68921;SDS011;55959;51.244;5.724;2023-10-31T04:20:16;6.07;;;5.10;;
68921;SDS011;55959;51.244;5.724;2023-10-31T04:22:42;6.37;;;5.13;;
68921;SDS011;55959;51.244;5.724;2023-10-31T04:25:08;5.20;;;4.70;;
68921;SDS011;55959;51.244;5.724;2023-10-31T04:27:34;5.33;;;4.83;;
68921;SDS011;55959;51.244;5.724;2023-10-31T04:29:59;4.97;;;4.50;;
68921;SDS011;55959;51.244;5.724;2023-10-31T04:32:26;5.13;;;4.63;;
68921;SDS011;55959;51.244;5.724;2023-10-31T04:34:51;5.10;;;4.70;;
68921;SDS011;55959;51.244;5.724;2023-10-31T04:37:17;4.83;;;4.33;;
68921;SDS011;55959;51.244;5.724;2023-10-31T04:39:43;6.77;;;4.93;;
68921;SDS011;55959;51.244;5.724;2023-10-31T04:42:08;4.97;;;4.50;;
68921;SDS011;55959;51.244;5.724;2023-10-31T04:44:34;4.87;;;4.47;;
68921;SDS011;55959;51.244;5.724;2023-10-31T04:47:00;4.93;;;4.53;;
68921;SDS011;55959;51.244;5.724;2023-10-31T04:49:26;4.67;;;4.27;;
68921;SDS011;55959;51.244;5.724;2023-10-31T04:51:51;6.03;;;4.83;;
68921;SDS011;55959;51.244;5.724;2023-10-31T04:54:17;5.37;;;4.40;;
68921;SDS011;55959;51.244;5.724;2023-10-31T04:56:43;6.23;;;5.03;;
68921;SDS011;55959;51.244;5.724;2023-10-31T04:59:08;5.60;;;5.07;;
68921;SDS011;55959;51.244;5.724;2023-10-31T05:01:34;5.53;;;4.60;;
68921;SDS011;55959;51.244;5.724;2023-10-31T05:04:00;5.00;;;4.60;;
68921;SDS011;55959;51.244;5.724;2023-10-31T05:06:26;4.60;;;4.20;;
68921;SDS011;55959;51.244;5.724;2023-10-31T05:08:52;4.40;;;4.10;;
68921;SDS011;55959;51.244;5.724;2023-10-31T05:11:18;6.27;;;4.50;;
68921;SDS011;55959;51.244;5.724;2023-10-31T05:13:44;5.23;;;4.73;;
68921;SDS011;55959;51.244;5.724;2023-10-31T05:16:10;5.17;;;4.67;;
68921;SDS011;55959;51.244;5.724;2023-10-31T05:18:37;5.63;;;5.13;;
68921;SDS011;55959;51.244;5.724;2023-10-31T05:21:03;4.63;;;4.23;;
68921;SDS011;55959;51.244;5.724;2023-10-31T05:23:29;5.87;;;5.30;;
68921;SDS011;55959;51.244;5.724;2023-10-31T05:25:55;6.07;;;5.50;;
68921;SDS011;55959;51.244;5.724;2023-10-31T05:28:21;5.30;;;4.90;;
68921;SDS011;55959;51.244;5.724;2023-10-31T05:30:48;5.23;;;4.73;;
68921;SDS011;55959;51.244;5.724;2023-10-31T05:33:14;5.73;;;5.23;;
68921;SDS011;55959;51.244;5.724;2023-10-31T05:35:41;6.27;;;5.37;;
68921;SDS011;55959;51.244;5.724;2023-10-31T05:38:07;6.43;;;5.60;;
68921;SDS011;55959;51.244;5.724;2023-10-31T05:40:33;5.07;;;4.67;;
68921;SDS011;55959;51.244;5.724;2023-10-31T05:43:00;5.43;;;4.87;;
68921;SDS011;55959;51.244;5.724;2023-10-31T05:45:27;5.97;;;5.47;;
68921;SDS011;55959;51.244;5.724;2023-10-31T05:47:54;5.73;;;5.20;;
68921;SDS011;55959;51.244;5.724;2023-10-31T05:50:20;5.20;;;4.80;;
68921;SDS011;55959;51.244;5.724;2023-10-31T05:52:46;5.87;;;5.30;;
68921;SDS011;55959;51.244;5.724;2023-10-31T05:55:12;5.93;;;5.43;;
68921;SDS011;55959;51.244;5.724;2023-10-31T05:57:38;5.13;;;4.73;;
68921;SDS011;55959;51.244;5.724;2023-10-31T06:00:04;6.83;;;6.13;;
68921;SDS011;55959;51.244;5.724;2023-10-31T06:02:31;7.20;;;5.67;;
68921;SDS011;55959;51.244;5.724;2023-10-31T06:04:57;5.90;;;5.40;;
68921;SDS011;55959;51.244;5.724;2023-10-31T06:07:23;6.40;;;5.80;;
68921;SDS011;55959;51.244;5.724;2023-10-31T06:09:49;6.53;;;6.00;;
68921;SDS011;55959;51.244;5.724;2023-10-31T06:12:14;6.50;;;5.83;;
68921;SDS011;55959;51.244;5.724;2023-10-31T06:14:40;6.00;;;5.50;;
68921;SDS011;55959;51.244;5.724;2023-10-31T06:17:06;6.37;;;5.87;;
68921;SDS011;55959;51.244;5.724;2023-10-31T06:19:35;6.03;;;5.47;;
68921;SDS011;55959;51.244;5.724;2023-10-31T06:22:02;6.70;;;6.10;;
68921;SDS011;55959;51.244;5.724;2023-10-31T06:24:28;7.33;;;6.73;;
68921;SDS011;55959;51.244;5.724;2023-10-31T06:26:54;6.17;;;5.57;;
68921;SDS011;55959;51.244;5.724;2023-10-31T06:29:19;6.13;;;5.60;;
68921;SDS011;55959;51.244;5.724;2023-10-31T06:31:45;6.17;;;5.67;;
68921;SDS011;55959;51.244;5.724;2023-10-31T06:34:11;6.27;;;5.77;;
68921;SDS011;55959;51.244;5.724;2023-10-31T06:36:37;6.00;;;5.50;;
68921;SDS011;55959;51.244;5.724;2023-10-31T06:39:02;6.53;;;5.80;;
68921;SDS011;55959;51.244;5.724;2023-10-31T06:41:28;5.87;;;5.37;;
68921;SDS011;55959;51.244;5.724;2023-10-31T06:43:54;6.07;;;5.57;;
68921;SDS011;55959;51.244;5.724;2023-10-31T06:46:19;5.57;;;5.07;;
68921;SDS011;55959;51.244;5.724;2023-10-31T06:48:45;5.80;;;5.30;;
68921;SDS011;55959;51.244;5.724;2023-10-31T06:51:11;6.17;;;5.57;;
68921;SDS011;55959;51.244;5.724;2023-10-31T06:53:36;6.37;;;5.87;;
68921;SDS011;55959;51.244;5.724;2023-10-31T06:56:02;6.10;;;5.53;;
68921;SDS011;55959;51.244;5.724;2023-10-31T06:58:29;5.77;;;5.17;;
68921;SDS011;55959;51.244;5.724;2023-10-31T07:00:54;6.50;;;5.20;;
68921;SDS011;55959;51.244;5.724;2023-10-31T07:03:23;6.20;;;5.60;;
68921;SDS011;55959;51.244;5.724;2023-10-31T07:05:49;5.60;;;4.97;;
68921;SDS011;55959;51.244;5.724;2023-10-31T07:08:14;5.30;;;4.80;;
68921;SDS011;55959;51.244;5.724;2023-10-31T07:10:40;5.57;;;5.07;;
68921;SDS011;55959;51.244;5.724;2023-10-31T07:13:06;6.37;;;5.40;;
68921;SDS011;55959;51.244;5.724;2023-10-31T07:15:31;5.70;;;5.20;;
68921;SDS011;55959;51.244;5.724;2023-10-31T07:17:57;6.23;;;5.73;;
68921;SDS011;55959;51.244;5.724;2023-10-31T07:20:23;5.80;;;5.30;;
68921;SDS011;55959;51.244;5.724;2023-10-31T07:22:49;6.40;;;5.90;;
68921;SDS011;55959;51.244;5.724;2023-10-31T07:25:15;5.70;;;5.30;;
68921;SDS011;55959;51.244;5.724;2023-10-31T07:27:41;5.07;;;4.67;;
68921;SDS011;55959;51.244;5.724;2023-10-31T07:30:06;6.30;;;5.50;;
68921;SDS011;55959;51.244;5.724;2023-10-31T07:32:32;6.27;;;5.73;;
68921;SDS011;55959;51.244;5.724;2023-10-31T07:34:58;6.07;;;5.57;;
68921;SDS011;55959;51.244;5.724;2023-10-31T07:37:24;5.97;;;5.47;;
68921;SDS011;55959;51.244;5.724;2023-10-31T07:39:49;5.97;;;5.47;;
68921;SDS011;55959;51.244;5.724;2023-10-31T07:42:18;5.73;;;5.23;;
68921;SDS011;55959;51.244;5.724;2023-10-31T07:44:43;5.80;;;5.33;;
68921;SDS011;55959;51.244;5.724;2023-10-31T07:47:09;6.83;;;5.87;;
68921;SDS011;55959;51.244;5.724;2023-10-31T07:49:35;6.43;;;5.83;;
68921;SDS011;55959;51.244;5.724;2023-10-31T07:52:00;6.93;;;6.17;;
68921;SDS011;55959;51.244;5.724;2023-10-31T07:54:26;6.70;;;6.10;;
68921;SDS011;55959;51.244;5.724;2023-10-31T07:56:52;7.33;;;6.60;;
68921;SDS011;55959;51.244;5.724;2023-10-31T07:59:18;7.70;;;6.60;;
68921;SDS011;55959;51.244;5.724;2023-10-31T08:01:44;6.80;;;6.20;;
68921;SDS011;55959;51.244;5.724;2023-10-31T08:04:09;6.97;;;6.37;;
68921;SDS011;55959;51.244;5.724;2023-10-31T08:06:35;6.63;;;6.03;;
68921;SDS011;55959;51.244;5.724;2023-10-31T08:09:01;6.70;;;6.03;;
68921;SDS011;55959;51.244;5.724;2023-10-31T08:11:27;6.67;;;6.07;;
68921;SDS011;55959;51.244;5.724;2023-10-31T08:13:52;7.20;;;6.50;;
68921;SDS011;55959;51.244;5.724;2023-10-31T08:16:18;6.83;;;6.10;;
68921;SDS011;55959;51.244;5.724;2023-10-31T08:18:45;7.63;;;6.93;;
68921;SDS011;55959;51.244;5.724;2023-10-31T08:21:11;7.53;;;6.57;;
68921;SDS011;55959;51.244;5.724;2023-10-31T08:23:37;6.70;;;6.10;;
68921;SDS011;55959;51.244;5.724;2023-10-31T08:26:03;7.83;;;7.10;;
68921;SDS011;55959;51.244;5.724;2023-10-31T08:28:29;7.00;;;6.40;;
68921;SDS011;55959;51.244;5.724;2023-10-31T08:30:56;7.97;;;7.13;;
68921;SDS011;55959;51.244;5.724;2023-10-31T08:33:22;6.67;;;6.07;;
68921;SDS011;55959;51.244;5.724;2023-10-31T08:35:49;7.20;;;6.50;;
68921;SDS011;55959;51.244;5.724;2023-10-31T08:38:16;7.47;;;6.17;;
68921;SDS011;55959;51.244;5.724;2023-10-31T08:40:42;6.70;;;6.10;;
68921;SDS011;55959;51.244;5.724;2023-10-31T08:43:08;7.00;;;6.30;;
68921;SDS011;55959;51.244;5.724;2023-10-31T08:45:34;6.10;;;5.60;;
68921;SDS011;55959;51.244;5.724;2023-10-31T08:48:00;6.53;;;5.93;;
68921;SDS011;55959;51.244;5.724;2023-10-31T08:50:26;6.10;;;5.50;;
68921;SDS011;55959;51.244;5.724;2023-10-31T08:52:51;6.90;;;6.20;;
68921;SDS011;55959;51.244;5.724;2023-10-31T08:55:18;6.50;;;5.63;;
68921;SDS011;55959;51.244;5.724;2023-10-31T08:57:44;6.90;;;6.20;;
68921;SDS011;55959;51.244;5.724;2023-10-31T09:00:10;6.27;;;5.67;;
68921;SDS011;55959;51.244;5.724;2023-10-31T09:02:36;5.83;;;5.00;;
68921;SDS011;55959;51.244;5.724;2023-10-31T09:05:01;5.40;;;5.00;;
68921;SDS011;55959;51.244;5.724;2023-10-31T09:07:27;5.23;;;4.73;;
68921;SDS011;55959;51.244;5.724;2023-10-31T09:09:53;5.67;;;5.00;;
68921;SDS011;55959;51.244;5.724;2023-10-31T09:12:19;6.63;;;5.83;;
68921;SDS011;55959;51.244;5.724;2023-10-31T09:14:45;8.17;;;5.63;;
68921;SDS011;55959;51.244;5.724;2023-10-31T09:17:11;6.07;;;5.13;;
68921;SDS011;55959;51.244;5.724;2023-10-31T09:19:37;5.40;;;4.90;;
68921;SDS011;55959;51.244;5.724;2023-10-31T09:22:03;6.57;;;5.33;;
68921;SDS011;55959;51.244;5.724;2023-10-31T09:24:29;4.80;;;4.40;;
68921;SDS011;55959;51.244;5.724;2023-10-31T09:26:54;5.30;;;4.80;;
68921;SDS011;55959;51.244;5.724;2023-10-31T09:29:20;5.43;;;4.93;;
68921;SDS011;55959;51.244;5.724;2023-10-31T09:31:46;6.03;;;4.80;;
68921;SDS011;55959;51.244;5.724;2023-10-31T09:34:12;5.20;;;4.70;;
68921;SDS011;55959;51.244;5.724;2023-10-31T09:36:39;5.40;;;4.80;;
68921;SDS011;55959;51.244;5.724;2023-10-31T09:39:05;5.30;;;4.80;;
68921;SDS011;55959;51.244;5.724;2023-10-31T09:41:31;6.87;;;4.40;;
68921;SDS011;55959;51.244;5.724;2023-10-31T09:43:57;5.23;;;4.20;;
68921;SDS011;55959;51.244;5.724;2023-10-31T09:46:23;5.00;;;4.50;;
68921;SDS011;55959;51.244;5.724;2023-10-31T09:48:49;4.90;;;4.40;;
68921;SDS011;55959;51.244;5.724;2023-10-31T09:51:16;5.47;;;4.40;;
68921;SDS011;55959;51.244;5.724;2023-10-31T09:53:44;4.40;;;4.00;;
68921;SDS011;55959;51.244;5.724;2023-10-31T09:56:10;5.37;;;4.10;;
68921;SDS011;55959;51.244;5.724;2023-10-31T09:58:36;4.80;;;4.13;;
68921;SDS011;55959;51.244;5.724;2023-10-31T10:01:04;4.30;;;3.90;;
68921;SDS011;55959;51.244;5.724;2023-10-31T10:03:30;4.27;;;3.87;;
68921;SDS011;55959;51.244;5.724;2023-10-31T10:05:56;4.40;;;4.00;;
68921;SDS011;55959;51.244;5.724;2023-10-31T10:08:23;4.73;;;3.80;;
68921;SDS011;55959;51.244;5.724;2023-10-31T10:10:52;4.63;;;3.20;;
68921;SDS011;55959;51.244;5.724;2023-10-31T10:13:18;3.80;;;3.50;;
68921;SDS011;55959;51.244;5.724;2023-10-31T10:15:46;5.33;;;3.20;;
68921;SDS011;55959;51.244;5.724;2023-10-31T10:18:27;3.53;;;3.23;;
68921;SDS011;55959;51.244;5.724;2023-10-31T10:21:04;4.03;;;3.10;;
68921;SDS011;55959;51.244;5.724;2023-10-31T10:23:31;3.67;;;2.87;;
68921;SDS011;55959;51.244;5.724;2023-10-31T10:25:57;4.30;;;3.20;;
68921;SDS011;55959;51.244;5.724;2023-10-31T10:28:25;4.47;;;3.07;;
68921;SDS011;55959;51.244;5.724;2023-10-31T10:30:52;3.13;;;2.77;;
68921;SDS011;55959;51.244;5.724;2023-10-31T10:33:19;3.87;;;3.00;;
68921;SDS011;55959;51.244;5.724;2023-10-31T10:35:46;2.93;;;2.10;;
68921;SDS011;55959;51.244;5.724;2023-10-31T10:38:13;3.23;;;2.73;;
68921;SDS011;55959;51.244;5.724;2023-10-31T10:40:44;4.07;;;2.53;;
68921;SDS011;55959;51.244;5.724;2023-10-31T10:43:19;3.13;;;2.57;;
68921;SDS011;55959;51.244;5.724;2023-10-31T10:45:45;4.13;;;2.67;;
68921;SDS011;55959;51.244;5.724;2023-10-31T10:48:13;2.80;;;2.00;;
68921;SDS011;55959;51.244;5.724;2023-10-31T10:50:43;2.70;;;2.50;;
68921;SDS011;55959;51.244;5.724;2023-10-31T10:53:23;3.33;;;2.70;;
68921;SDS011;55959;51.244;5.724;2023-10-31T10:55:55;3.00;;;2.70;;
68921;SDS011;55959;51.244;5.724;2023-10-31T10:58:41;3.93;;;2.50;;
68921;SDS011;55959;51.244;5.724;2023-10-31T11:01:17;2.50;;;2.30;;
68921;SDS011;55959;51.244;5.724;2023-10-31T11:03:44;2.40;;;2.20;;
68921;SDS011;55959;51.244;5.724;2023-10-31T11:06:11;3.10;;;2.53;;
68921;SDS011;55959;51.244;5.724;2023-10-31T11:08:38;2.43;;;2.20;;
68921;SDS011;55959;51.244;5.724;2023-10-31T11:11:05;2.80;;;2.10;;
68921;SDS011;55959;51.244;5.724;2023-10-31T11:13:31;3.27;;;2.20;;
68921;SDS011;55959;51.244;5.724;2023-10-31T11:15:59;2.73;;;2.23;;
68921;SDS011;55959;51.244;5.724;2023-10-31T11:18:38;2.80;;;1.90;;
68921;SDS011;55959;51.244;5.724;2023-10-31T11:21:05;2.30;;;2.07;;
68921;SDS011;55959;51.244;5.724;2023-10-31T11:23:30;2.30;;;2.00;;
68921;SDS011;55959;51.244;5.724;2023-10-31T11:25:56;2.70;;;2.50;;
68921;SDS011;55959;51.244;5.724;2023-10-31T11:28:22;4.77;;;2.63;;
68921;SDS011;55959;51.244;5.724;2023-10-31T11:30:48;2.97;;;2.30;;
68921;SDS011;55959;51.244;5.724;2023-10-31T11:33:15;2.57;;;2.37;;
68921;SDS011;55959;51.244;5.724;2023-10-31T11:35:49;2.10;;;1.90;;
68921;SDS011;55959;51.244;5.724;2023-10-31T11:38:16;4.73;;;2.63;;
68921;SDS011;55959;51.244;5.724;2023-10-31T11:43:25;3.30;;;2.87;;
68921;SDS011;55959;51.244;5.724;2023-10-31T11:45:51;3.70;;;2.70;;
68921;SDS011;55959;51.244;5.724;2023-10-31T11:48:19;3.10;;;2.50;;
68921;SDS011;55959;51.244;5.724;2023-10-31T11:51:17;3.93;;;2.77;;
68921;SDS011;55959;51.244;5.724;2023-10-31T11:53:44;2.87;;;1.90;;
68921;SDS011;55959;51.244;5.724;2023-10-31T11:56:10;4.90;;;2.47;;
68921;SDS011;55959;51.244;5.724;2023-10-31T11:58:37;3.97;;;2.10;;
68921;SDS011;55959;51.244;5.724;2023-10-31T12:01:07;1.60;;;1.30;;
68921;SDS011;55959;51.244;5.724;2023-10-31T12:03:38;2.83;;;1.80;;
68921;SDS011;55959;51.244;5.724;2023-10-31T12:06:12;2.80;;;1.60;;
68921;SDS011;55959;51.244;5.724;2023-10-31T12:08:40;2.10;;;1.70;;
68921;SDS011;55959;51.244;5.724;2023-10-31T12:11:08;1.50;;;1.20;;
68921;SDS011;55959;51.244;5.724;2023-10-31T12:13:40;2.17;;;1.70;;
68921;SDS011;55959;51.244;5.724;2023-10-31T12:16:28;1.83;;;1.63;;
68921;SDS011;55959;51.244;5.724;2023-10-31T12:18:56;1.63;;;1.43;;
68921;SDS011;55959;51.244;5.724;2023-10-31T12:24:22;2.03;;;1.53;;
68921;SDS011;55959;51.244;5.724;2023-10-31T12:26:48;2.87;;;1.40;;
68921;SDS011;55959;51.244;5.724;2023-10-31T12:31:47;2.37;;;1.60;;
68921;SDS011;55959;51.244;5.724;2023-10-31T12:34:23;1.20;;;1.10;;
68921;SDS011;55959;51.244;5.724;2023-10-31T12:36:53;2.03;;;1.30;;
68921;SDS011;55959;51.244;5.724;2023-10-31T12:39:29;1.40;;;1.30;;
68921;SDS011;55959;51.244;5.724;2023-10-31T12:41:56;2.00;;;1.10;;
68921;SDS011;55959;51.244;5.724;2023-10-31T12:44:23;1.63;;;1.07;;
68921;SDS011;55959;51.244;5.724;2023-10-31T12:46:51;1.23;;;1.10;;
68921;SDS011;55959;51.244;5.724;2023-10-31T12:49:18;1.40;;;0.90;;
68921;SDS011;55959;51.244;5.724;2023-10-31T12:52:01;1.77;;;1.30;;
68921;SDS011;55959;51.244;5.724;2023-10-31T12:54:29;3.03;;;1.30;;
68921;SDS011;55959;51.244;5.724;2023-10-31T12:57:09;1.10;;;1.00;;
68921;SDS011;55959;51.244;5.724;2023-10-31T12:59:35;1.93;;;1.20;;
68921;SDS011;55959;51.244;5.724;2023-10-31T13:02:05;3.07;;;1.10;;
68921;SDS011;55959;51.244;5.724;2023-10-31T13:04:33;1.40;;;1.10;;
68921;SDS011;55959;51.244;5.724;2023-10-31T13:07:00;2.73;;;1.27;;
68921;SDS011;55959;51.244;5.724;2023-10-31T13:09:28;2.10;;;1.40;;
68921;SDS011;55959;51.244;5.724;2023-10-31T13:12:02;3.50;;;1.47;;
68921;SDS011;55959;51.244;5.724;2023-10-31T13:14:30;2.13;;;0.90;;
68921;SDS011;55959;51.244;5.724;2023-10-31T13:16:58;4.10;;;1.30;;
68921;SDS011;55959;51.244;5.724;2023-10-31T13:19:24;3.10;;;1.30;;
68921;SDS011;55959;51.244;5.724;2023-10-31T13:21:50;3.50;;;1.30;;
68921;SDS011;55959;51.244;5.724;2023-10-31T13:24:16;1.97;;;1.30;;
68921;SDS011;55959;51.244;5.724;2023-10-31T13:26:42;2.93;;;1.20;;
68921;SDS011;55959;51.244;5.724;2023-10-31T13:29:09;3.37;;;1.50;;
68921;SDS011;55959;51.244;5.724;2023-10-31T13:31:36;2.90;;;1.30;;
68921;SDS011;55959;51.244;5.724;2023-10-31T13:34:02;2.13;;;1.20;;
68921;SDS011;55959;51.244;5.724;2023-10-31T13:36:28;2.57;;;1.43;;
68921;SDS011;55959;51.244;5.724;2023-10-31T13:38:54;3.07;;;1.50;;
68921;SDS011;55959;51.244;5.724;2023-10-31T13:41:20;2.97;;;1.33;;
68921;SDS011;55959;51.244;5.724;2023-10-31T13:43:46;2.87;;;1.03;;
68921;SDS011;55959;51.244;5.724;2023-10-31T13:46:13;2.77;;;1.10;;
68921;SDS011;55959;51.244;5.724;2023-10-31T13:48:39;2.77;;;1.33;;
68921;SDS011;55959;51.244;5.724;2023-10-31T13:51:05;1.90;;;1.03;;
68921;SDS011;55959;51.244;5.724;2023-10-31T13:53:30;2.97;;;1.10;;
68921;SDS011;55959;51.244;5.724;2023-10-31T13:55:56;2.80;;;0.90;;
68921;SDS011;55959;51.244;5.724;2023-10-31T13:58:24;5.53;;;1.50;;
68921;SDS011;55959;51.244;5.724;2023-10-31T14:00:49;2.40;;;1.10;;
68921;SDS011;55959;51.244;5.724;2023-10-31T14:03:15;3.00;;;0.87;;
68921;SDS011;55959;51.244;5.724;2023-10-31T14:05:41;2.27;;;0.97;;
68921;SDS011;55959;51.244;5.724;2023-10-31T14:08:07;3.37;;;1.20;;
68921;SDS011;55959;51.244;5.724;2023-10-31T14:10:33;2.67;;;1.33;;
68921;SDS011;55959;51.244;5.724;2023-10-31T14:12:59;4.43;;;1.40;;
68921;SDS011;55959;51.244;5.724;2023-10-31T14:15:25;4.07;;;1.43;;
68921;SDS011;55959;51.244;5.724;2023-10-31T14:17:50;4.23;;;1.53;;
68921;SDS011;55959;51.244;5.724;2023-10-31T14:20:16;2.70;;;1.37;;
68921;SDS011;55959;51.244;5.724;2023-10-31T14:22:49;1.80;;;1.40;;
68921;SDS011;55959;51.244;5.724;2023-10-31T14:25:15;2.17;;;1.70;;
68921;SDS011;55959;51.244;5.724;2023-10-31T14:27:41;3.47;;;1.87;;
68921;SDS011;55959;51.244;5.724;2023-10-31T14:30:08;2.57;;;1.60;;
68921;SDS011;55959;51.244;5.724;2023-10-31T14:32:38;4.60;;;1.90;;
68921;SDS011;55959;51.244;5.724;2023-10-31T14:35:04;4.40;;;1.70;;
68921;SDS011;55959;51.244;5.724;2023-10-31T14:37:31;2.50;;;1.80;;
68921;SDS011;55959;51.244;5.724;2023-10-31T14:39:57;2.20;;;1.73;;
68921;SDS011;55959;51.244;5.724;2023-10-31T14:42:23;2.60;;;1.80;;
68921;SDS011;55959;51.244;5.724;2023-10-31T14:44:49;3.23;;;1.93;;
68921;SDS011;55959;51.244;5.724;2023-10-31T14:47:14;2.57;;;1.80;;
68921;SDS011;55959;51.244;5.724;2023-10-31T14:49:40;2.00;;;1.80;;
68921;SDS011;55959;51.244;5.724;2023-10-31T14:52:06;2.10;;;1.70;;
68921;SDS011;55959;51.244;5.724;2023-10-31T14:54:33;2.90;;;1.40;;